createdAt,value
2019-06-07T00:01:57.253Z,4.00
2019-06-07T00:06:52.582Z,3.77
2019-06-07T00:11:50.697Z,3.80
2019-06-07T00:16:45.893Z,3.80
2019-06-07T00:22:13.724Z,3.90
2019-06-07T00:26:57.101Z,3.60
2019-06-07T00:31:34.211Z,4.00
2019-06-07T00:36:30.124Z,4.77
2019-06-07T00:41:25.036Z,4.37
2019-06-07T00:46:21.629Z,7.67
2019-06-07T00:51:17.668Z,5.00
2019-06-07T00:56:13.830Z,4.80
2019-06-07T01:01:08.805Z,4.00
2019-06-07T01:06:04.213Z,4.00
2019-06-07T01:10:59.104Z,4.13
2019-06-07T01:15:53.965Z,4.20
2019-06-07T01:20:48.902Z,3.90
2019-06-07T01:25:44.129Z,4.17
2019-06-07T01:30:39.217Z,4.47
2019-06-07T01:35:34.158Z,4.70
2019-06-07T01:40:32.428Z,4.60
2019-06-07T01:45:28.820Z,4.13
2019-06-07T01:50:24.815Z,5.13
2019-06-07T01:55:23.049Z,5.37
2019-06-07T02:00:17.430Z,5.57
2019-06-07T02:05:13.002Z,4.70
2019-06-07T02:10:09.357Z,3.97
2019-06-07T02:15:04.681Z,3.30
2019-06-07T02:19:59.610Z,3.00
2019-06-07T02:25:34.388Z,2.90
2019-06-07T02:29:51.167Z,2.93
2019-06-07T02:34:46.049Z,2.30
2019-06-07T02:39:41.340Z,2.23
2019-06-07T02:44:39.433Z,2.00
2019-06-07T02:49:40.214Z,2.03
2019-06-07T02:54:36.086Z,2.00
2019-06-07T02:59:56.781Z,2.60
2019-06-07T03:04:28.550Z,2.50
2019-06-07T03:09:23.349Z,2.53
2019-06-07T03:14:19.206Z,2.30
2019-06-07T03:19:22.053Z,1.90
2019-06-07T03:24:17.023Z,1.87
2019-06-07T03:29:11.914Z,1.90
2019-06-07T03:34:06.933Z,2.30
2019-06-07T03:39:01.933Z,2.47
2019-06-07T03:43:56.829Z,2.60
2019-06-07T03:48:51.777Z,2.60
2019-06-07T03:53:46.755Z,2.07
2019-06-07T03:58:49.891Z,2.43
2019-06-07T04:03:46.507Z,2.50
2019-06-07T04:08:38.722Z,2.63
2019-06-07T04:13:36.790Z,2.40
2019-06-07T04:18:28.538Z,2.53
2019-06-07T04:23:28.240Z,2.37
2019-06-07T04:28:20.537Z,2.10
2019-06-07T04:33:15.599Z,2.47
2019-06-07T04:38:17.631Z,2.40
2019-06-07T04:43:13.060Z,3.40
2019-06-07T04:48:08.873Z,2.07
2019-06-07T04:53:03.991Z,2.20
2019-06-07T04:57:58.867Z,2.80
2019-06-07T05:02:54.085Z,2.70
2019-06-07T05:07:48.974Z,2.60
2019-06-07T05:12:44.459Z,2.50
2019-06-07T05:17:43.283Z,3.00
2019-06-07T05:22:40.769Z,3.00
2019-06-07T05:27:34.336Z,3.00
2019-06-07T05:32:32.549Z,3.37
2019-06-07T05:37:26.391Z,3.70
2019-06-07T05:42:21.334Z,3.87
2019-06-07T05:47:19.850Z,3.80
2019-06-07T05:52:14.724Z,4.67
2019-06-07T05:57:09.596Z,4.50
2019-06-07T06:02:21.711Z,4.70
2019-06-07T06:07:01.782Z,4.73
2019-06-07T06:12:02.333Z,6.10
2019-06-07T06:16:53.530Z,5.80
2019-06-07T06:21:48.721Z,6.63
2019-06-07T06:26:50.911Z,6.87
2019-06-07T06:31:49.220Z,7.20
2019-06-07T06:36:39.751Z,6.60
2019-06-07T06:41:48.473Z,6.60
2019-06-07T06:46:38.655Z,7.17
2019-06-07T06:51:27.805Z,6.93
2019-06-07T06:56:23.026Z,7.00
2019-06-07T07:01:18.051Z,7.73
2019-06-07T07:06:25.843Z,6.97
2019-06-07T07:11:13.222Z,9.67
2019-06-07T07:16:08.288Z,7.80
2019-06-07T07:21:03.273Z,4.70
2019-06-07T07:25:59.985Z,4.60
2019-06-07T07:30:57.179Z,3.40
2019-06-07T07:36:15.625Z,3.40
2019-06-07T07:41:01.800Z,3.70
2019-06-07T07:45:50.524Z,3.10
2019-06-07T07:50:47.530Z,3.60
2019-06-07T07:55:40.723Z,3.73
2019-06-07T08:00:52.294Z,3.20
2019-06-07T08:05:42.323Z,3.50
2019-06-07T08:10:33.461Z,3.10
2019-06-07T08:15:28.407Z,3.50
2019-06-07T08:20:23.480Z,3.57
2019-06-07T08:25:18.554Z,3.83
2019-06-07T08:30:47.020Z,3.80
2019-06-07T08:35:11.343Z,3.73
2019-06-07T08:40:07.466Z,3.53
2019-06-07T08:45:05.488Z,3.80
2019-06-07T08:50:02.775Z,3.90
2019-06-07T08:54:57.852Z,3.40
2019-06-07T09:00:04.835Z,3.10
2019-06-07T09:04:58.701Z,2.77
2019-06-07T09:09:59.758Z,2.87
2019-06-07T09:15:06.708Z,3.30
2019-06-07T09:19:45.147Z,3.70
2019-06-07T09:24:40.595Z,3.60
2019-06-07T09:29:35.838Z,3.00
2019-06-07T09:34:30.789Z,3.10
2019-06-07T09:39:25.771Z,3.30
2019-06-07T09:44:25.488Z,3.27
2019-06-07T09:49:30.598Z,3.50
2019-06-07T09:55:02.667Z,3.27
2019-06-07T09:59:12.818Z,3.30
2019-06-07T10:04:16.569Z,3.67
2019-06-07T10:14:02.447Z,3.37
2019-06-07T10:18:59.099Z,3.20
2019-06-07T10:23:54.007Z,3.37
2019-06-07T10:28:48.870Z,3.55
2019-06-07T10:33:43.975Z,3.05
2019-06-07T10:38:39.215Z,3.30
2019-06-07T10:43:34.129Z,3.10
2019-06-07T10:48:29.049Z,3.12
2019-06-07T10:53:24.059Z,3.40
2019-06-07T10:58:19.173Z,3.00
2019-06-07T11:03:14.366Z,3.08
2019-06-07T11:08:10.251Z,2.95
2019-06-07T11:13:06.118Z,3.10
2019-06-07T11:18:01.043Z,2.77
2019-06-07T11:22:55.934Z,2.85
2019-06-07T11:27:50.887Z,3.00
2019-06-07T11:32:47.814Z,2.98
2019-06-07T11:37:42.714Z,3.10
2019-06-07T11:42:37.682Z,2.52
2019-06-07T11:47:33.554Z,3.45
2019-06-07T11:52:28.386Z,2.65
2019-06-07T11:57:23.333Z,3.27
2019-06-07T12:02:18.204Z,3.10
2019-06-07T12:07:15.108Z,2.10
2019-06-07T12:12:28.189Z,2.62
2019-06-07T12:17:23.077Z,2.58
2019-06-07T12:22:18.241Z,2.40
2019-06-07T12:27:14.699Z,2.62
2019-06-07T12:32:11.140Z,2.22
2019-06-07T12:37:06.281Z,2.22
2019-06-07T12:42:01.256Z,2.42
2019-06-07T12:46:58.198Z,2.40
2019-06-07T12:51:53.125Z,2.40
2019-06-07T12:56:53.145Z,2.22
2019-06-07T13:01:47.994Z,2.40
2019-06-07T13:06:42.874Z,2.92
2019-06-07T13:11:37.735Z,2.27
2019-06-07T13:16:33.008Z,2.50
2019-06-07T13:21:28.654Z,2.85
2019-06-07T13:26:24.949Z,2.55
2019-06-07T13:31:21.149Z,2.50
2019-06-07T13:36:16.105Z,2.72
2019-06-07T13:41:10.937Z,3.02
2019-06-07T13:46:05.769Z,2.80
2019-06-07T13:51:00.649Z,2.47
2019-06-07T13:55:55.499Z,2.67
2019-06-07T14:00:53.487Z,2.65
2019-06-07T14:05:51.483Z,2.80
2019-06-07T14:10:47.414Z,2.67
2019-06-07T14:15:44.639Z,2.70
2019-06-07T14:20:39.647Z,2.83
2019-06-07T14:25:35.610Z,2.42
2019-06-07T14:30:31.093Z,2.70
2019-06-07T14:35:28.816Z,3.00
2019-06-07T14:40:25.329Z,2.87
2019-06-07T14:45:20.460Z,2.98
2019-06-07T14:50:15.466Z,2.67
2019-06-07T14:55:10.627Z,3.08
2019-06-07T15:00:11.312Z,3.10
2019-06-07T15:05:04.571Z,2.70
2019-06-07T15:09:59.498Z,2.77
2019-06-07T15:14:54.541Z,3.05
2019-06-07T15:19:49.440Z,3.02
2019-06-07T15:24:44.383Z,3.10
2019-06-07T15:29:39.615Z,3.27
2019-06-07T15:34:34.652Z,2.87
2019-06-07T15:39:30.401Z,2.72
2019-06-07T15:44:25.756Z,2.67
2019-06-07T15:49:20.570Z,2.90
2019-06-07T15:54:15.422Z,3.00
2019-06-07T15:59:10.289Z,2.70
2019-06-07T16:04:05.551Z,3.00
2019-06-07T16:09:00.509Z,3.15
2019-06-07T16:13:55.410Z,3.10
2019-06-07T16:18:50.299Z,2.92
2019-06-07T16:23:45.388Z,2.80
2019-06-07T16:28:40.508Z,3.10
2019-06-07T16:33:36.673Z,2.95
2019-06-07T16:38:31.591Z,2.70
2019-06-07T16:43:26.816Z,3.30
2019-06-07T16:48:21.652Z,3.00
2019-06-07T16:53:19.637Z,2.77
2019-06-07T16:58:14.570Z,3.10
2019-06-07T17:03:09.854Z,2.90
2019-06-07T17:08:04.864Z,2.80
2019-06-07T17:12:59.788Z,3.00
2019-06-07T17:17:54.742Z,3.12
2019-06-07T17:22:49.856Z,2.75
2019-06-07T17:27:46.358Z,3.75
2019-06-07T17:32:50.838Z,2.85
2019-06-07T17:37:41.579Z,3.20
2019-06-07T17:42:36.102Z,2.90
2019-06-07T17:47:31.064Z,2.98
2019-06-07T17:52:25.988Z,3.20
2019-06-07T17:57:20.890Z,2.98
2019-06-07T18:02:15.959Z,3.20
2019-06-07T18:07:10.893Z,3.08
2019-06-07T18:12:06.010Z,6.50
2019-06-07T18:17:00.907Z,4.08
2019-06-07T18:21:58.805Z,3.40
2019-06-07T18:26:53.042Z,10.32
2019-06-07T18:31:48.726Z,2.80
2019-06-07T18:36:44.006Z,4.90
2019-06-07T18:41:38.924Z,2.40
2019-06-07T18:46:33.794Z,2.80
2019-06-07T18:51:28.699Z,2.50
2019-06-07T18:56:23.745Z,2.58
2019-06-07T19:01:18.690Z,2.50
2019-06-07T19:06:13.713Z,2.30
2019-06-07T19:11:08.724Z,2.52
2019-06-07T19:16:04.520Z,2.45
2019-06-07T19:21:00.683Z,2.17
2019-06-07T19:25:56.329Z,2.10
2019-06-07T19:30:52.849Z,1.90
2019-06-07T19:35:48.058Z,2.10
2019-06-07T19:40:45.058Z,1.40
2019-06-07T19:45:40.015Z,1.50
2019-06-07T19:50:36.635Z,1.33
2019-06-07T19:55:31.704Z,1.77
2019-06-07T20:00:29.162Z,3.20
2019-06-07T20:05:25.193Z,1.50
2019-06-07T20:10:20.279Z,1.10
2019-06-07T20:15:28.334Z,0.80
2019-06-07T20:20:13.961Z,1.00
2019-06-07T20:25:11.431Z,2.20
2019-06-07T20:30:08.606Z,1.60
2019-06-07T20:35:03.928Z,1.70
2019-06-07T20:40:05.998Z,1.33
2019-06-07T20:44:55.591Z,1.30
2019-06-07T20:49:50.549Z,1.13
2019-06-07T20:54:45.519Z,0.90
2019-06-07T20:59:40.485Z,1.00
2019-06-07T21:04:35.787Z,1.20
2019-06-07T21:09:30.747Z,1.00
2019-06-07T21:14:27.317Z,1.50
2019-06-07T21:19:23.209Z,1.20
2019-06-07T21:24:18.078Z,1.00
2019-06-07T21:29:13.993Z,0.97
2019-06-07T21:34:12.280Z,1.40
2019-06-07T21:39:08.317Z,1.40
2019-06-07T21:44:04.483Z,0.90
2019-06-07T21:48:59.519Z,0.83
2019-06-07T21:53:54.474Z,1.00
2019-06-07T21:58:49.516Z,1.00
2019-06-07T22:03:44.527Z,1.10
2019-06-07T22:08:39.465Z,0.90
2019-06-07T22:13:36.037Z,1.50
2019-06-07T22:18:30.981Z,1.17
2019-06-07T22:23:25.935Z,1.20
2019-06-07T22:28:20.916Z,1.17
2019-06-07T22:33:15.863Z,1.10
2019-06-07T22:38:12.139Z,1.07
2019-06-07T22:43:07.504Z,1.17
2019-06-07T22:48:02.583Z,1.00
2019-06-07T22:52:57.826Z,0.90
2019-06-07T22:57:57.840Z,0.87
2019-06-07T23:02:52.700Z,1.10
2019-06-07T23:07:47.682Z,1.00
2019-06-07T23:12:42.565Z,0.93
2019-06-07T23:17:37.446Z,0.83
2019-06-07T23:22:32.309Z,1.07
2019-06-07T23:27:27.282Z,1.03
2019-06-07T23:32:22.542Z,1.00
2019-06-07T23:37:19.145Z,1.50
2019-06-07T23:42:20.091Z,1.33
2019-06-07T23:47:17.223Z,1.07
2019-06-07T23:52:12.020Z,1.03
2019-06-07T23:57:06.909Z,1.00
